Аэропорт: Орск. Орск

ICAO: UWOR

METAR:
2019/01/21 23:00
UWOR 212300Z 13003MPS CAVOK M16/M20 Q1020 R25/850240 NOSIG RMK QFE741/0989
METAR:
2015/12/20 18:00
TAF UWOR 201700Z 2018/2103 15010G15MPS 2000 SN BLSN OVC007 
      TEMPO 2018/2024 19015MPS 1200 SN BLSN OVC005